createdAt,value
2023-03-19T00:01:54.261Z,11.63
2023-03-19T00:04:56.798Z,11.71
2023-03-19T00:08:00.787Z,11.80
2023-03-19T00:11:07.240Z,11.85
2023-03-19T00:14:09.928Z,11.88
2023-03-19T00:17:12.387Z,11.89
2023-03-19T00:20:16.071Z,11.88
2023-03-19T00:23:19.878Z,11.83
2023-03-19T00:26:22.347Z,11.73
2023-03-19T00:29:24.958Z,11.65
2023-03-19T00:32:27.499Z,11.58
2023-03-19T00:35:29.999Z,11.44
2023-03-19T00:38:34.221Z,11.39
2023-03-19T00:41:37.027Z,11.36
2023-03-19T00:44:39.541Z,11.37
2023-03-19T00:47:42.146Z,11.40
2023-03-19T00:50:44.742Z,11.51
2023-03-19T00:53:48.671Z,11.63
2023-03-19T00:56:51.225Z,11.60
2023-03-19T00:59:53.766Z,11.68
2023-03-19T01:02:56.533Z,11.77
2023-03-19T01:05:59.406Z,11.79
2023-03-19T01:09:03.308Z,11.73
2023-03-19T01:12:06.553Z,11.82
2023-03-19T01:15:10.393Z,11.89
2023-03-19T01:18:13.325Z,11.93
2023-03-19T01:21:15.913Z,12.00
2023-03-19T01:24:19.828Z,12.07
2023-03-19T01:27:22.848Z,12.19
2023-03-19T01:30:25.357Z,12.31
2023-03-19T01:33:27.941Z,12.27
2023-03-19T01:36:30.605Z,12.25
2023-03-19T01:39:34.829Z,12.23
2023-03-19T01:42:52.416Z,12.22
2023-03-19T01:45:58.272Z,12.22
2023-03-19T01:49:01.999Z,12.32
2023-03-19T01:52:06.116Z,12.40
2023-03-19T01:55:10.635Z,12.59
2023-03-19T01:58:13.274Z,12.94
2023-03-19T02:01:15.930Z,13.27
2023-03-19T02:04:19.536Z,13.46
2023-03-19T02:07:21.992Z,13.62
2023-03-19T02:10:26.397Z,13.61
2023-03-19T02:13:29.386Z,13.63
2023-03-19T02:16:32.120Z,13.65
2023-03-19T02:19:39.442Z,13.56
2023-03-19T02:22:44.762Z,13.50
2023-03-19T02:25:57.970Z,13.36
2023-03-19T02:29:00.549Z,12.64
2023-03-19T02:32:03.758Z,11.85
2023-03-19T02:35:06.961Z,11.51
2023-03-19T02:38:09.616Z,11.36
2023-03-19T02:41:13.685Z,11.32
2023-03-19T02:44:19.868Z,11.33
2023-03-19T02:47:22.477Z,11.30
2023-03-19T02:50:25.463Z,11.53
2023-03-19T02:53:28.113Z,11.40
2023-03-19T02:56:32.321Z,11.38
2023-03-19T02:59:34.886Z,11.45
2023-03-19T03:02:38.545Z,11.65
2023-03-19T03:05:40.859Z,11.69
2023-03-19T03:08:43.375Z,11.65
2023-03-19T03:11:47.804Z,11.60
2023-03-19T03:14:50.348Z,11.61
2023-03-19T03:17:52.976Z,11.49
2023-03-19T03:20:55.700Z,11.39
2023-03-19T03:23:58.202Z,11.38
2023-03-19T03:27:02.160Z,11.48
2023-03-19T03:30:05.137Z,11.40
2023-03-19T03:33:08.496Z,11.31
2023-03-19T03:36:12.355Z,11.27
2023-03-19T03:39:14.986Z,11.28
2023-03-19T03:42:19.052Z,11.32
2023-03-19T03:45:21.693Z,11.34
2023-03-19T03:48:24.388Z,11.45
2023-03-19T03:51:27.018Z,11.38
2023-03-19T03:54:29.576Z,11.35
2023-03-19T03:57:33.448Z,11.24
2023-03-19T04:00:36.157Z,11.16
2023-03-19T04:03:38.828Z,11.17
2023-03-19T04:06:41.389Z,11.16
2023-03-19T04:09:44.120Z,11.22
2023-03-19T04:12:47.930Z,11.21
2023-03-19T04:15:50.498Z,11.24
2023-03-19T04:18:53.016Z,11.27
2023-03-19T04:21:55.631Z,11.31
2023-03-19T04:24:58.523Z,11.36
2023-03-19T04:28:03.657Z,11.33
2023-03-19T04:31:07.527Z,11.38
2023-03-19T04:34:10.356Z,11.37
2023-03-19T04:37:13.126Z,11.40
2023-03-19T04:40:16.761Z,11.44
2023-03-19T04:43:20.483Z,11.51
2023-03-19T04:46:23.028Z,11.53
2023-03-19T04:49:25.975Z,11.53
2023-03-19T04:52:29.283Z,11.53
2023-03-19T04:55:32.433Z,11.52
2023-03-19T04:58:36.288Z,11.56
2023-03-19T05:01:39.028Z,11.55
2023-03-19T05:04:41.705Z,11.53
2023-03-19T05:07:44.269Z,11.53
2023-03-19T05:10:47.217Z,11.53
2023-03-19T05:13:51.088Z,11.55
2023-03-19T05:16:54.241Z,11.58
2023-03-19T05:19:57.029Z,11.49
2023-03-19T05:23:00.579Z,11.43
2023-03-19T05:26:03.146Z,11.33
2023-03-19T05:29:10.677Z,11.32
2023-03-19T05:32:13.659Z,11.28
2023-03-19T05:35:17.458Z,11.26
2023-03-19T05:38:20.087Z,11.22
2023-03-19T05:41:22.861Z,11.21
2023-03-19T05:44:27.183Z,11.25
2023-03-19T05:47:29.685Z,11.24
2023-03-19T05:50:33.426Z,11.26
2023-03-19T05:53:36.132Z,11.22
2023-03-19T05:56:38.720Z,11.17
2023-03-19T05:59:42.863Z,11.25
2023-03-19T06:02:45.807Z,11.29
2023-03-19T06:05:49.985Z,11.24
2023-03-19T06:08:53.013Z,11.28
2023-03-19T06:11:55.618Z,11.42
2023-03-19T06:14:59.459Z,11.47
2023-03-19T06:18:01.922Z,11.48
2023-03-19T06:21:05.260Z,11.55
2023-03-19T06:24:08.180Z,11.67
2023-03-19T06:27:10.851Z,11.79
2023-03-19T06:30:15.556Z,11.92
2023-03-19T06:33:18.396Z,11.99
2023-03-19T06:36:20.911Z,12.12
2023-03-19T06:39:23.520Z,12.19
2023-03-19T06:42:27.025Z,12.16
2023-03-19T06:45:30.945Z,12.16
2023-03-19T06:48:33.719Z,12.27
2023-03-19T06:51:36.170Z,12.34
2023-03-19T06:54:38.700Z,12.49
2023-03-19T06:57:41.368Z,12.64
2023-03-19T07:00:45.333Z,12.76
2023-03-19T07:03:47.923Z,12.95
2023-03-19T07:06:50.466Z,12.95
2023-03-19T07:09:53.247Z,13.09
2023-03-19T07:12:55.932Z,13.24
2023-03-19T07:15:59.924Z,13.12
2023-03-19T07:19:02.416Z,13.17
2023-03-19T07:22:05.208Z,13.24
2023-03-19T07:25:08.781Z,13.40
2023-03-19T07:28:11.181Z,13.58
2023-03-19T07:31:16.833Z,13.81
2023-03-19T07:34:19.430Z,13.91
2023-03-19T07:37:22.656Z,14.06
2023-03-19T07:40:25.605Z,14.27
2023-03-19T07:43:28.068Z,14.43
2023-03-19T07:46:32.014Z,14.31
2023-03-19T07:49:34.514Z,14.43
2023-03-19T07:52:37.115Z,14.52
2023-03-19T07:55:39.712Z,14.55
2023-03-19T07:58:42.300Z,14.62
2023-03-19T08:01:46.108Z,14.60
2023-03-19T08:04:48.684Z,14.40
2023-03-19T08:07:51.654Z,14.74
2023-03-19T08:10:54.783Z,15.06
2023-03-19T08:13:57.325Z,15.26
2023-03-19T08:17:01.569Z,15.25
2023-03-19T08:20:04.600Z,15.43
2023-03-19T08:23:07.296Z,15.48
2023-03-19T08:26:09.906Z,15.67
2023-03-19T08:29:12.623Z,15.60
2023-03-19T08:32:16.917Z,15.84
2023-03-19T08:35:20.208Z,15.69
2023-03-19T08:38:22.703Z,16.09
2023-03-19T08:41:26.093Z,16.00
2023-03-19T08:44:28.864Z,16.50
2023-03-19T08:47:32.840Z,16.89
2023-03-19T08:50:35.967Z,17.08
2023-03-19T08:53:39.891Z,17.02
2023-03-19T08:56:42.400Z,16.83
2023-03-19T08:59:45.561Z,16.74
2023-03-19T09:02:49.513Z,17.00
2023-03-19T09:05:52.122Z,17.13
2023-03-19T09:08:54.660Z,16.76
2023-03-19T09:11:57.414Z,16.51
2023-03-19T09:14:59.932Z,16.82
2023-03-19T09:18:04.048Z,17.15
2023-03-19T09:21:06.938Z,17.29
2023-03-19T09:24:09.751Z,17.26
2023-03-19T09:27:12.592Z,17.39
2023-03-19T09:30:15.601Z,17.81
2023-03-19T09:33:21.345Z,18.48
2023-03-19T09:36:23.930Z,18.46
2023-03-19T09:39:26.584Z,18.48
2023-03-19T09:42:43.109Z,18.92
2023-03-19T09:45:46.782Z,18.05
2023-03-19T09:48:53.838Z,17.40
2023-03-19T09:51:58.117Z,17.60
2023-03-19T09:55:04.522Z,18.31
2023-03-19T09:58:13.852Z,18.83
2023-03-19T10:01:25.696Z,18.84
2023-03-19T10:04:40.506Z,19.16
2023-03-19T10:07:51.681Z,18.95
2023-03-19T10:11:04.730Z,19.21
2023-03-19T10:14:22.168Z,19.19
2023-03-19T10:17:30.227Z,18.94
2023-03-19T10:20:40.988Z,18.71
2023-03-19T10:23:46.680Z,18.60
2023-03-19T10:26:49.527Z,18.75
2023-03-19T10:29:52.172Z,19.15
2023-03-19T10:33:00.764Z,19.39
2023-03-19T10:36:07.133Z,19.44
2023-03-19T10:39:09.956Z,19.72
2023-03-19T10:42:33.339Z,20.11
2023-03-19T10:45:38.860Z,20.17
2023-03-19T10:48:44.486Z,20.43
2023-03-19T10:51:49.150Z,20.45
2023-03-19T10:54:55.887Z,20.68
2023-03-19T10:58:04.635Z,20.20
2023-03-19T11:01:10.021Z,20.65
2023-03-19T11:04:15.365Z,20.85
2023-03-19T11:07:21.617Z,21.67
2023-03-19T11:10:25.593Z,22.13
2023-03-19T11:13:28.474Z,21.60
2023-03-19T11:16:31.176Z,21.41
2023-03-19T11:19:35.509Z,21.11
2023-03-19T11:22:39.993Z,20.67
2023-03-19T11:25:43.557Z,21.02
2023-03-19T11:28:51.698Z,21.92
2023-03-19T11:32:08.649Z,21.83
2023-03-19T11:35:22.024Z,22.26
2023-03-19T11:38:32.836Z,23.24
2023-03-19T11:41:48.360Z,22.89
2023-03-19T11:44:58.368Z,22.26
2023-03-19T11:48:10.187Z,21.54
2023-03-19T11:51:18.992Z,21.23
2023-03-19T11:54:28.857Z,22.15
2023-03-19T11:57:48.866Z,21.23
2023-03-19T12:00:52.710Z,20.95
2023-03-19T12:04:28.922Z,21.13
2023-03-19T12:07:34.924Z,21.22
2023-03-19T12:10:46.398Z,21.29
2023-03-19T12:14:02.691Z,22.11
2023-03-19T12:17:16.977Z,22.18
2023-03-19T12:20:43.336Z,22.29
2023-03-19T12:23:58.967Z,22.40
2023-03-19T12:27:12.494Z,21.56
2023-03-19T12:30:32.005Z,21.47
2023-03-19T12:33:41.169Z,22.71
2023-03-19T12:36:49.955Z,22.61
2023-03-19T12:39:59.682Z,21.77
2023-03-19T12:43:06.728Z,22.28
2023-03-19T12:46:13.229Z,22.57
2023-03-19T12:49:18.106Z,22.75
2023-03-19T12:52:23.583Z,22.04
2023-03-19T12:55:36.319Z,21.52
2023-03-19T12:58:49.806Z,21.27
2023-03-19T13:01:53.040Z,20.49
2023-03-19T13:04:57.943Z,19.77
2023-03-19T13:08:05.205Z,19.08
2023-03-19T13:11:14.929Z,18.60
2023-03-19T13:14:23.474Z,17.93
2023-03-19T13:17:31.008Z,16.91
2023-03-19T13:20:47.734Z,14.80
2023-03-19T13:23:52.862Z,13.37
2023-03-19T13:26:56.654Z,13.91
2023-03-19T13:30:17.715Z,14.73
2023-03-19T13:33:24.533Z,15.99
2023-03-19T13:36:28.623Z,18.47
2023-03-19T13:39:33.291Z,20.74
2023-03-19T13:42:39.940Z,21.40
2023-03-19T13:45:43.847Z,20.27
2023-03-19T13:48:52.555Z,18.67
2023-03-19T13:51:56.368Z,18.27
2023-03-19T13:55:27.990Z,17.70
2023-03-19T13:58:48.693Z,17.53
2023-03-19T14:01:52.587Z,17.18
2023-03-19T14:04:59.755Z,16.84
2023-03-19T14:08:02.311Z,16.94
2023-03-19T14:11:06.702Z,17.48
2023-03-19T14:14:14.571Z,20.17
2023-03-19T14:17:23.314Z,19.64
2023-03-19T14:20:35.393Z,21.31
2023-03-19T14:23:46.736Z,21.35
2023-03-19T14:26:49.892Z,21.92
2023-03-19T14:29:53.324Z,21.91
2023-03-19T14:32:58.246Z,22.88
2023-03-19T14:36:04.582Z,22.18
2023-03-19T14:39:10.639Z,20.92
2023-03-19T14:42:18.450Z,20.20
2023-03-19T14:45:32.714Z,19.68
2023-03-19T14:49:02.898Z,18.80
2023-03-19T14:52:07.578Z,18.44
2023-03-19T14:55:13.959Z,18.37
2023-03-19T14:58:16.536Z,18.25
2023-03-19T15:01:19.768Z,18.13
2023-03-19T15:04:25.454Z,17.81
2023-03-19T15:07:31.463Z,17.23
2023-03-19T15:10:37.994Z,16.75
2023-03-19T15:13:49.598Z,16.89
2023-03-19T15:16:57.671Z,17.14
2023-03-19T15:20:03.015Z,17.80
2023-03-19T15:23:19.853Z,17.95
2023-03-19T15:26:31.589Z,17.45
2023-03-19T15:29:37.852Z,17.51
2023-03-19T15:32:54.305Z,17.28
2023-03-19T15:36:09.871Z,17.23
2023-03-19T15:39:13.006Z,17.14
2023-03-19T15:42:17.915Z,17.02
2023-03-19T15:45:23.870Z,16.71
2023-03-19T15:48:29.167Z,16.74
2023-03-19T15:51:33.391Z,16.30
2023-03-19T15:54:35.962Z,16.31
2023-03-19T15:57:39.929Z,16.17
2023-03-19T16:00:42.978Z,16.03
2023-03-19T16:03:47.019Z,15.61
2023-03-19T16:06:52.627Z,15.48
2023-03-19T16:09:55.347Z,15.27
2023-03-19T16:12:57.982Z,14.63
2023-03-19T16:16:06.790Z,13.81
2023-03-19T16:19:29.092Z,13.14
2023-03-19T16:22:34.023Z,12.82
2023-03-19T16:25:36.787Z,12.63
2023-03-19T16:28:45.230Z,12.61
2023-03-19T16:31:52.367Z,12.60
2023-03-19T16:34:56.086Z,12.50
2023-03-19T16:38:14.436Z,12.48
2023-03-19T16:41:18.838Z,12.26
2023-03-19T16:44:30.220Z,12.26
2023-03-19T16:47:34.067Z,12.16
2023-03-19T16:50:38.297Z,12.14
2023-03-19T16:53:42.456Z,12.32
2023-03-19T16:56:44.943Z,12.33
2023-03-19T16:59:47.905Z,12.30
2023-03-19T17:02:50.434Z,12.43
2023-03-19T17:05:53.233Z,12.29
2023-03-19T17:08:57.201Z,12.21
2023-03-19T17:12:01.368Z,12.20
2023-03-19T17:15:04.167Z,12.27
2023-03-19T17:18:13.558Z,12.13
2023-03-19T17:21:18.383Z,12.11
2023-03-19T17:24:27.285Z,12.09
2023-03-19T17:27:30.011Z,12.02
2023-03-19T17:30:32.889Z,12.06
2023-03-19T17:33:35.842Z,12.15
2023-03-19T17:36:38.424Z,12.13
2023-03-19T17:39:43.276Z,12.18
2023-03-19T17:42:45.920Z,11.95
2023-03-19T17:45:49.299Z,11.95
2023-03-19T17:48:52.793Z,11.95
2023-03-19T17:51:56.005Z,11.98
2023-03-19T17:55:00.822Z,11.96
2023-03-19T17:58:03.460Z,11.77
2023-03-19T18:01:12.906Z,11.67
2023-03-19T18:04:17.044Z,11.67
2023-03-19T18:07:19.626Z,11.65
2023-03-19T18:10:26.639Z,11.63
2023-03-19T18:13:29.291Z,11.54
2023-03-19T18:16:33.074Z,11.56
2023-03-19T18:19:37.430Z,11.53
2023-03-19T18:22:40.063Z,11.39
2023-03-19T18:25:44.946Z,11.36
2023-03-19T18:28:47.446Z,11.27
2023-03-19T18:31:51.270Z,11.33
2023-03-19T18:34:53.777Z,11.38
2023-03-19T18:37:56.637Z,11.30
2023-03-19T18:41:00.629Z,11.29
2023-03-19T18:44:03.612Z,11.22
2023-03-19T18:47:07.317Z,11.31
2023-03-19T18:50:14.462Z,11.28
2023-03-19T18:53:17.856Z,11.24
2023-03-19T18:56:23.767Z,11.28
2023-03-19T18:59:27.742Z,11.23
2023-03-19T19:02:33.359Z,11.23
2023-03-19T19:05:36.316Z,11.26
2023-03-19T19:08:38.776Z,11.29
2023-03-19T19:11:45.685Z,11.40
2023-03-19T19:14:48.504Z,11.42
2023-03-19T19:17:51.835Z,11.43
2023-03-19T19:20:54.882Z,11.53
2023-03-19T19:23:57.482Z,11.58
2023-03-19T19:27:01.559Z,11.60
2023-03-19T19:30:04.644Z,11.50
2023-03-19T19:33:07.347Z,11.31
2023-03-19T19:36:11.660Z,11.21
2023-03-19T19:39:14.251Z,11.18
2023-03-19T19:42:19.844Z,11.11
2023-03-19T19:45:30.140Z,11.11
2023-03-19T19:48:32.610Z,11.06
2023-03-19T19:51:35.311Z,10.99
2023-03-19T19:54:39.857Z,10.99
2023-03-19T19:57:44.411Z,11.26
2023-03-19T20:01:00.149Z,11.42
2023-03-19T20:04:06.174Z,11.58
2023-03-19T20:07:08.617Z,11.59
2023-03-19T20:10:12.901Z,11.46
2023-03-19T20:13:24.833Z,11.24
2023-03-19T20:16:27.723Z,10.97
2023-03-19T20:19:30.448Z,10.79
2023-03-19T20:22:33.423Z,10.68
2023-03-19T20:25:37.616Z,10.61
2023-03-19T20:28:42.652Z,10.68
2023-03-19T20:31:46.271Z,10.82
2023-03-19T20:34:49.739Z,10.94
2023-03-19T20:37:52.918Z,11.00
2023-03-19T20:40:57.103Z,11.10
2023-03-19T20:44:02.713Z,11.10
2023-03-19T20:47:06.953Z,11.14
2023-03-19T20:50:17.550Z,11.13
2023-03-19T20:53:20.390Z,11.18
2023-03-19T20:56:24.541Z,11.27
2023-03-19T20:59:28.935Z,11.35
2023-03-19T21:02:32.227Z,11.38
2023-03-19T21:05:37.152Z,11.45
2023-03-19T21:08:41.814Z,11.36
2023-03-19T21:11:44.769Z,11.39
2023-03-19T21:14:48.612Z,11.38
2023-03-19T21:17:51.538Z,11.43
2023-03-19T21:20:55.493Z,11.40
2023-03-19T21:23:59.935Z,11.27
2023-03-19T21:27:04.084Z,11.04
2023-03-19T21:30:11.756Z,10.76
2023-03-19T21:33:22.301Z,10.54
2023-03-19T21:36:24.941Z,10.48
2023-03-19T21:39:27.488Z,10.41
2023-03-19T21:42:31.775Z,10.35
2023-03-19T21:45:36.514Z,10.29
2023-03-19T21:48:39.840Z,10.21
2023-03-19T21:51:43.661Z,10.17
2023-03-19T21:54:46.447Z,10.10
2023-03-19T21:57:49.076Z,10.02
2023-03-19T22:00:53.210Z,9.93
2023-03-19T22:03:57.243Z,9.85
2023-03-19T22:06:59.906Z,9.83
2023-03-19T22:10:02.625Z,9.79
2023-03-19T22:13:06.142Z,9.74
2023-03-19T22:16:18.265Z,9.69
2023-03-19T22:19:21.507Z,9.60
2023-03-19T22:22:24.058Z,9.55
2023-03-19T22:25:30.022Z,9.68
2023-03-19T22:28:34.366Z,9.94
2023-03-19T22:31:38.554Z,10.03
2023-03-19T22:34:41.199Z,10.12
2023-03-19T22:37:43.955Z,10.06
2023-03-19T22:40:48.284Z,10.28
2023-03-19T22:43:51.344Z,10.39
2023-03-19T22:46:55.899Z,10.56
2023-03-19T22:49:58.484Z,10.60
2023-03-19T22:53:01.048Z,10.77
2023-03-19T22:56:04.612Z,10.88
2023-03-19T22:59:07.145Z,10.94
2023-03-19T23:02:14.837Z,10.97
2023-03-19T23:05:29.673Z,11.10
2023-03-19T23:08:32.398Z,11.12
2023-03-19T23:11:34.895Z,11.20
2023-03-19T23:14:37.995Z,11.16
2023-03-19T23:17:42.366Z,11.06
2023-03-19T23:20:46.362Z,11.22
2023-03-19T23:23:49.637Z,11.20
2023-03-19T23:26:54.055Z,11.17
2023-03-19T23:29:56.588Z,11.23
2023-03-19T23:33:02.665Z,11.20
2023-03-19T23:36:05.910Z,11.23
2023-03-19T23:39:09.369Z,11.15
2023-03-19T23:42:14.068Z,11.20
2023-03-19T23:45:23.378Z,11.17
2023-03-19T23:48:32.318Z,11.15
2023-03-19T23:51:34.919Z,11.15
2023-03-19T23:54:38.790Z,11.13
2023-03-19T23:57:41.773Z,11.11
